Погода Малые Озерана неделю

Ростовская область, Россия

13 - 19 июля
  • 13июля
    Сегодня
    +15°
    +30°
    Ясно и безоблачно
    ВремяПогодаТемператураВлажностьДавлениеВетер, м/сВероятность осадков
    00:00Ясно и безоблачно+19°C37 %754 мм2.4 м/с2 %
    03:00Ясно и безоблачно+16°C44 %754 мм2.8 м/с2 %
    06:00Ясно и безоблачно+17°C45 %754 мм3.3 м/с2 %
    09:00Ясно и безоблачно+25°C28 %754 мм4.1 м/с2 %
    12:00Ясно и безоблачно+28°C21 %753 мм4.3 м/с2 %
    15:00Ясно и безоблачно+30°C19 %752 мм5.1 м/с2 %
    18:00Ясно и безоблачно+29°C20 %752 мм5.0 м/с2 %
    21:00Ясно и безоблачно+22°C31 %752 мм2.8 м/с2 %
  • 14июля
    Воскресенье
    +17°
    +32°
    Ясно и безоблачно
    ВремяПогодаТемператураВлажностьДавлениеВетер, м/сВероятность осадков
    00:00Ясно и безоблачно+19°C40 %752 мм2.4 м/с2 %
    03:00Ясно и безоблачно+16°C47 %753 мм2.4 м/с2 %
    06:00Ясно и безоблачно+17°C48 %753 мм2.7 м/с2 %
    09:00Ясно и безоблачно+25°C30 %753 мм4.0 м/с2 %
    12:00Ясно и безоблачно+29°C20 %752 мм4.0 м/с2 %
    15:00Ясно и безоблачно+31°C15 %752 мм4.1 м/с2 %
    18:00Ясно и безоблачно+31°C15 %751 мм4.0 м/с2 %
    21:00Ясно и безоблачно+24°C22 %752 мм2.6 м/с2 %
  • 15июля
    Понедельник
    +21°
    +37°
    Облачно с прояснениями
    ВремяПогодаТемператураВлажностьДавлениеВетер, м/сВероятность осадков
    00:00Ясно и безоблачно+20°C33 %752 мм1.9 м/с2 %
    03:00Ясно и безоблачно+17°C46 %752 мм2.2 м/с2 %
    06:00Ясно и безоблачно+21°C44 %752 мм2.3 м/с2 %
    09:00Ясно и безоблачно+30°C24 %752 мм1.6 м/с2 %
    12:00Ясно и безоблачно+34°C26 %752 мм2.2 м/с2 %
    15:00Облачно с прояснениями+37°C24 %751 мм3.7 м/с7 %
    18:00Практически безоблачно+34°C37 %751 мм5.3 м/с27 %
    21:00Ясно и безоблачно+28°C49 %752 мм2.8 м/с2 %
  • 16июля
    Вторник
    +20°
    +37°
    Практически безоблачно
    ВремяПогодаТемператураВлажностьДавлениеВетер, м/сВероятность осадков
    00:00Ясно и безоблачно+25°C61 %752 мм2.3 м/с2 %
    03:00Ясно и безоблачно+22°C70 %752 мм1.9 м/с2 %
    06:00Ясно и безоблачно+23°C68 %752 мм2.3 м/с2 %
    09:00Ясно и безоблачно+31°C45 %752 мм3.0 м/с2 %
    12:00Ясно и безоблачно+35°C35 %752 мм2.4 м/с2 %
    15:00Практически безоблачно+36°C30 %751 мм2.1 м/с8 %
    18:00Небольшая облачность+35°C30 %751 мм2.9 м/с19 %
    21:00Ясно и безоблачно+29°C40 %752 мм4.3 м/с4 %
  • 17июля
    Среда
    +20°
    +36°
    Практически безоблачно
    ВремяПогодаТемператураВлажностьДавлениеВетер, м/сВероятность осадков
    00:00Ясно и безоблачно+26°C45 %752 мм3.4 м/с2 %
    03:00Небольшая облачность+22°C53 %752 мм2.0 м/с2 %
    06:00Практически безоблачно+24°C53 %753 мм2.4 м/с2 %
    09:00Ясно и безоблачно+32°C33 %753 мм0.9 м/с2 %
    12:00Практически безоблачно+35°C26 %753 мм2.2 м/с2 %
    15:00Практически безоблачно+35°C27 %752 мм1.7 м/с7 %
    18:00Небольшая облачность+34°C30 %752 мм2.7 м/с11 %
    21:00Ясно и безоблачно+29°C33 %752 мм4.2 м/с2 %
Мы используем cookies
Соглашаюсь